Time;durP1;ratioP1;P1;durP2;ratioP2;P2;SDS_P1;SDS_P2;PMS_P1;PMS_P2;Temp;Humidity;BMP_temperature;BMP_pressure;BME280_temperature;BME280_humidity;BME280_pressure;Samples;Min_cycle;Max_cycle;Signal;HPM_P1;HPM_P2
2022/07/30 00:01:05;;;;;;;9.63;5.18;;;;;;;16.96;70.54;101705.47;5031081;28;20169;-68
2022/07/30 00:03:32;;;;;;;7.82;4.60;;;;;;;16.93;70.57;101697.50;5043728;28;20037;-67
2022/07/30 00:05:57;;;;;;;7.72;4.75;;;;;;;16.90;70.35;101704.13;5032047;28;20037;-67
2022/07/30 00:08:23;;;;;;;10.40;5.60;;;;;;;16.87;72.28;101701.63;5038908;28;20071;-68
2022/07/30 00:10:49;;;;;;;15.00;5.82;;;;;;;16.86;71.84;101704.50;5033556;28;20041;-67
2022/07/30 00:13:14;;;;;;;13.68;6.53;;;;;;;16.86;74.44;101701.75;5038906;28;20052;-67
2022/07/30 00:15:40;;;;;;;13.88;5.85;;;;;;;16.87;73.68;101704.38;5032389;28;20037;-67
2022/07/30 00:18:05;;;;;;;16.08;6.57;;;;;;;16.79;74.75;101693.19;5029561;28;20041;-70
2022/07/30 00:20:31;;;;;;;10.30;5.43;;;;;;;16.76;73.07;101685.19;5029767;28;20045;-70
2022/07/30 00:22:56;;;;;;;12.68;5.95;;;;;;;16.73;73.74;101685.44;5048358;28;20174;-67
2022/07/30 00:25:22;;;;;;;14.05;6.18;;;;;;;16.71;74.16;101690.16;5039220;28;20408;-68
2022/07/30 00:27:48;;;;;;;12.23;5.53;;;;;;;16.66;72.38;101685.06;5039689;28;20029;-68
2022/07/30 00:30:14;;;;;;;10.13;5.45;;;;;;;16.66;72.84;101685.06;5042150;28;20064;-66
2022/07/30 00:32:39;;;;;;;10.43;5.72;;;;;;;16.63;73.69;101693.56;5044162;28;20042;-71
2022/07/30 00:35:05;;;;;;;8.98;4.88;;;;;;;16.59;72.30;101692.94;5039211;28;20534;-67
2022/07/30 00:37:30;;;;;;;11.63;4.78;;;;;;;16.55;71.58;101691.47;5048268;28;20044;-67
2022/07/30 00:39:56;;;;;;;11.23;5.53;;;;;;;16.51;71.69;101694.59;5047661;28;20052;-66
2022/07/30 00:42:24;;;;;;;7.68;5.05;;;;;;;16.45;72.05;101698.72;5033793;28;20072;-68
2022/07/30 00:44:53;;;;;;;9.38;5.13;;;;;;;16.40;71.94;101695.47;5043636;28;20060;-67
2022/07/30 00:47:19;;;;;;;16.40;6.45;;;;;;;16.38;72.62;101693.88;5029665;28;20148;-66
2022/07/30 00:49:45;;;;;;;8.63;5.13;;;;;;;16.36;72.26;101695.88;5028143;28;20064;-68
2022/07/30 00:52:11;;;;;;;12.38;6.20;;;;;;;16.30;73.30;101695.38;5028309;28;20025;-67
2022/07/30 00:54:36;;;;;;;9.70;5.57;;;;;;;16.25;73.52;101689.41;5032543;28;20021;-69
2022/07/30 00:57:02;;;;;;;9.88;5.07;;;;;;;16.22;72.95;101686.03;5048500;28;20211;-68
2022/07/30 00:59:27;;;;;;;9.15;5.18;;;;;;;16.19;72.78;101691.78;5047567;28;20078;-67
2022/07/30 01:01:53;;;;;;;10.43;4.75;;;;;;;16.13;71.81;101692.28;5043565;28;20107;-66
2022/07/30 01:04:20;;;;;;;8.40;5.38;;;;;;;16.07;73.84;101697.28;5043877;28;20034;-70
2022/07/30 01:06:45;;;;;;;12.88;6.03;;;;;;;16.01;74.58;101688.69;5028582;28;20036;-68
2022/07/30 01:09:11;;;;;;;10.98;6.38;;;;;;;15.98;75.32;101686.19;5029548;28;20429;-66
2022/07/30 01:11:39;;;;;;;10.32;5.10;;;;;;;15.97;73.01;101687.19;5033380;28;20499;-68
2022/07/30 01:14:06;;;;;;;10.77;5.70;;;;;;;15.95;73.66;101675.47;5046219;28;20057;-67
2022/07/30 01:16:34;;;;;;;14.32;7.10;;;;;;;15.92;74.91;101676.59;5029294;28;20034;-68
2022/07/30 01:21:59;;;;;;;9.95;5.88;;;;;;;15.80;73.42;101674.81;5044121;28;20120;-67
2022/07/30 01:24:32;;;;;;;12.10;5.93;;;;;;;15.79;73.29;101673.09;5035811;28;20062;-66
2022/07/30 01:26:58;;;;;;;11.98;5.85;;;;;;;15.76;73.41;101678.81;5046480;28;20039;-68
2022/07/30 01:29:26;;;;;;;10.77;6.18;;;;;;;15.73;74.32;101674.47;5043584;28;20017;-67
2022/07/30 01:31:58;;;;;;;10.52;5.95;;;;;;;15.69;74.15;101677.59;5041531;28;20033;-66
2022/07/30 01:34:27;;;;;;;8.27;5.57;;;;;;;15.66;73.47;101681.44;5031115;28;20365;-68
2022/07/30 01:36:55;;;;;;;12.77;6.40;;;;;;;15.62;74.26;101690.00;5031153;28;20447;-70
2022/07/30 01:39:22;;;;;;;8.25;5.70;;;;;;;15.60;74.13;101683.78;5046403;28;20520;-67
2022/07/30 01:41:49;;;;;;;13.15;6.28;;;;;;;15.53;74.03;101681.53;5047102;28;20025;-68
2022/07/30 01:44:16;;;;;;;9.00;6.32;;;;;;;15.48;73.61;101682.88;5045001;28;20485;-68
2022/07/30 01:46:41;;;;;;;7.20;5.47;;;;;;;15.44;73.11;101685.00;5043290;28;20497;-67
2022/07/30 01:49:09;;;;;;;7.82;5.63;;;;;;;15.42;73.53;101692.47;5033809;28;20591;-66
2022/07/30 01:51:36;;;;;;;10.00;5.03;;;;;;;15.37;73.40;101680.13;5042994;28;20048;-68
2022/07/30 01:54:03;;;;;;;12.70;5.60;;;;;;;15.35;74.21;101688.47;5026639;28;20388;-68
2022/07/30 01:56:30;;;;;;;12.48;7.22;;;;;;;15.36;76.66;101690.22;5043620;28;20033;-72
2022/07/30 01:58:57;;;;;;;13.38;7.75;;;;;;;15.36;75.82;101683.88;5047862;28;20040;-67
2022/07/30 02:01:24;;;;;;;14.82;8.07;;;;;;;15.36;75.89;101681.13;5046498;28;20476;-67
2022/07/30 02:03:55;;;;;;;12.73;7.32;;;;;;;15.36;75.49;101687.47;5029425;28;20033;-68
2022/07/30 02:06:25;;;;;;;17.05;7.60;;;;;;;15.38;75.10;101688.22;5042679;28;20061;-67
2022/07/30 02:08:54;;;;;;;14.15;8.25;;;;;;;15.36;76.55;101687.47;5046032;28;20049;-69
2022/07/30 02:14:27;;;;;;;15.43;9.00;;;;;;;15.36;76.08;101689.34;5033192;28;20036;-67
2022/07/30 02:16:57;;;;;;;16.70;11.55;;;;;;;15.24;80.00;101685.69;5028664;28;20104;-68
2022/07/30 02:19:34;;;;;;;13.60;10.65;;;;;;;15.26;79.74;101694.69;5038551;28;20047;-69
2022/07/30 02:22:05;;;;;;;16.08;10.00;;;;;;;15.25;78.27;101690.22;5044618;28;20028;-68
2022/07/30 02:24:33;;;;;;;16.50;9.52;;;;;;;15.26;77.26;101692.81;5045711;28;20123;-68
2022/07/30 02:27:07;;;;;;;14.07;9.65;;;;;;;15.25;77.11;101692.94;5041769;28;20145;-68
2022/07/30 02:29:35;;;;;;;14.82;8.77;;;;;;;15.20;76.99;101696.06;5042343;28;20033;-67
2022/07/30 02:32:08;;;;;;;14.75;9.10;;;;;;;15.17;77.53;101688.06;5044403;28;20021;-68
2022/07/30 02:34:36;;;;;;;13.57;9.45;;;;;;;15.15;77.99;101692.78;5040216;28;20118;-68
2022/07/30 02:37:04;;;;;;;14.25;9.90;;;;;;;15.12;79.08;101690.28;5026955;28;20095;-67
2022/07/30 02:39:32;;;;;;;15.32;9.25;;;;;;;15.09;77.75;101689.66;5027591;28;20526;-69
2022/07/30 02:41:58;;;;;;;19.08;11.48;;;;;;;15.09;80.15;101698.75;5029405;28;20033;-67
2022/07/30 02:44:27;;;;;;;13.73;8.27;;;;;;;15.04;76.09;101696.34;5045170;28;20040;-72
2022/07/30 02:46:55;;;;;;;13.98;9.48;;;;;;;15.00;76.31;101697.59;5029101;28;20036;-67
2022/07/30 02:49:40;;;;;;;16.40;9.15;;;;;;;14.96;76.13;101693.31;5037827;28;20128;-68
2022/07/30 02:52:11;;;;;;;15.50;8.52;;;;;;;14.94;76.07;101694.47;5042342;28;20021;-67
2022/07/30 02:54:38;;;;;;;11.63;8.02;;;;;;;14.90;76.22;101696.56;5025893;28;20601;-68
2022/07/30 02:57:05;;;;;;;16.17;8.38;;;;;;;14.86;75.15;101691.44;5031770;28;20449;-67
2022/07/30 02:59:33;;;;;;;13.73;8.48;;;;;;;14.81;75.28;101700.00;5041476;28;20110;-70
2022/07/30 03:01:59;;;;;;;15.02;10.00;;;;;;;14.73;77.44;101692.34;5027338;28;20492;-67
2022/07/30 03:04:26;;;;;;;14.05;9.10;;;;;;;14.72;76.43;101704.31;5039676;28;20094;-69
2022/07/30 03:06:54;;;;;;;12.95;8.45;;;;;;;14.67;75.69;101695.56;5044372;28;20044;-69
2022/07/30 03:09:20;;;;;;;14.93;8.50;;;;;;;14.64;76.16;101705.88;5046731;28;20040;-69
2022/07/30 03:11:50;;;;;;;12.13;8.82;;;;;;;14.60;76.62;101704.38;5044613;28;20379;-69
2022/07/30 03:14:15;;;;;;;14.75;9.75;;;;;;;14.57;77.71;101701.88;5032343;28;20132;-68
2022/07/30 03:16:46;;;;;;;18.45;8.52;;;;;;;14.55;76.21;101710.22;5032040;28;20620;-69
2022/07/30 03:19:14;;;;;;;14.15;9.27;;;;;;;14.53;76.81;101713.03;5026161;28;20045;-67
2022/07/30 03:21:40;;;;;;;16.98;8.98;;;;;;;14.52;77.08;101713.19;5038787;28;20687;-68
2022/07/30 03:24:07;;;;;;;17.73;11.07;;;;;;;14.50;79.17;101710.56;5045674;28;20040;-69
2022/07/30 03:26:35;;;;;;;18.52;10.80;;;;;;;14.50;77.92;101707.81;5040374;28;20036;-67
2022/07/30 03:29:01;;;;;;;14.73;9.95;;;;;;;14.49;77.86;101705.19;5045681;28;20029;-68
2022/07/30 03:31:27;;;;;;;16.45;10.48;;;;;;;14.46;77.92;101709.00;5031940;28;20522;-67
2022/07/30 03:33:53;;;;;;;11.80;9.63;;;;;;;14.46;77.60;101706.28;5036982;28;20037;-68
2022/07/30 03:36:19;;;;;;;13.93;9.95;;;;;;;14.45;77.37;101703.63;5025251;28;20033;-67
2022/07/30 03:38:46;;;;;;;20.95;11.05;;;;;;;14.42;77.98;101707.47;5030023;28;20060;-68
2022/07/30 03:41:13;;;;;;;15.40;10.82;;;;;;;14.39;78.17;101712.31;5045011;28;20040;-69
2022/07/30 03:43:40;;;;;;;12.18;9.10;;;;;;;14.33;76.31;101702.69;5042395;28;20032;-67
2022/07/30 03:46:08;;;;;;;16.92;9.82;;;;;;;14.28;76.73;101708.50;5042018;28;20033;-67
2022/07/30 03:48:39;;;;;;;11.90;9.10;;;;;;;14.24;77.17;101707.00;5035968;28;20136;-67
2022/07/30 03:51:09;;;;;;;10.55;8.27;;;;;;;14.20;77.37;101716.41;5040882;28;20033;-68
2022/07/30 03:53:36;;;;;;;18.42;10.23;;;;;;;14.18;77.08;101721.13;5041207;28;20037;-66
2022/07/30 03:56:20;;;;;;;17.42;10.13;;;;;;;14.16;77.12;101719.47;5027616;28;20573;-67
2022/07/30 03:59:13;;;;;;;18.95;10.07;;;;;;;14.13;77.73;101722.44;5038932;28;20044;-68
2022/07/30 04:01:39;;;;;;;15.23;10.93;;;;;;;14.13;80.31;101719.69;5030366;28;20029;-68
2022/07/30 04:04:22;;;;;;;15.32;11.65;;;;;;;14.15;79.17;101734.16;5040974;28;20033;-66
2022/07/30 04:06:48;;;;;;;16.15;10.70;;;;;;;14.11;78.26;101727.16;5043843;28;20049;-67
2022/07/30 04:09:13;;;;;;;16.92;11.10;;;;;;;14.10;78.29;101730.88;5028248;28;20552;-71
2022/07/30 04:11:39;;;;;;;14.95;10.48;;;;;;;14.10;77.82;101731.75;5043547;28;20025;-69
2022/07/30 04:14:06;;;;;;;17.17;9.85;;;;;;;14.07;78.35;101731.09;5044394;28;20064;-68
2022/07/30 04:16:49;;;;;;;18.77;9.95;;;;;;;14.09;77.24;101732.75;5018893;28;20388;-67
2022/07/30 04:19:24;;;;;;;16.45;10.85;;;;;;;14.08;77.50;101743.78;5018765;28;20049;-70
2022/07/30 04:21:53;;;;;;;15.13;9.43;;;;;;;14.05;77.76;101739.44;5050160;28;20048;-67
2022/07/30 04:24:19;;;;;;;19.30;10.15;;;;;;;14.06;77.08;101732.97;5036369;28;20082;-67
2022/07/30 04:26:46;;;;;;;14.48;10.20;;;;;;;14.06;78.36;101743.91;5025411;28;20465;-67
2022/07/30 04:29:14;;;;;;;17.38;10.30;;;;;;;14.04;78.08;101748.63;5024738;28;20033;-67
2022/07/30 04:31:40;;;;;;;17.33;10.48;;;;;;;14.06;78.73;101746.66;5036565;28;20377;-68
2022/07/30 04:34:22;;;;;;;16.67;11.57;;;;;;;14.09;79.84;101751.03;5040563;28;20777;-69
2022/07/30 04:36:47;;;;;;;18.15;11.30;;;;;;;14.13;78.92;101749.78;5027456;28;20064;-68
2022/07/30 04:39:13;;;;;;;18.63;12.55;;;;;;;14.16;80.22;101755.06;5042361;28;20045;-68
2022/07/30 04:41:39;;;;;;;16.20;10.95;;;;;;;14.20;80.28;101745.63;5060655;28;20479;-69
2022/07/30 04:44:21;;;;;;;17.30;11.50;;;;;;;14.23;80.10;101757.25;5028911;28;20378;-69
2022/07/30 04:47:06;;;;;;;15.48;10.88;;;;;;;14.25;79.96;101757.13;5033809;28;20039;-66
2022/07/30 04:49:37;;;;;;;16.95;11.90;;;;;;;14.29;80.10;101761.38;5040628;28;20337;-67
2022/07/30 04:52:04;;;;;;;18.17;11.60;;;;;;;14.30;80.09;101757.66;5047009;28;20025;-67
2022/07/30 04:54:39;;;;;;;19.55;11.85;;;;;;;14.36;79.77;101767.28;5045790;28;20036;-68
2022/07/30 04:57:05;;;;;;;16.75;11.23;;;;;;;14.39;79.91;101767.94;5030578;28;20033;-67
2022/07/30 04:59:33;;;;;;;17.88;10.18;;;;;;;14.41;79.98;101774.19;5048559;28;20025;-70
2022/07/30 05:02:00;;;;;;;18.95;11.32;;;;;;;14.43;80.09;101776.81;5045988;28;20033;-67
2022/07/30 05:04:28;;;;;;;17.52;11.00;;;;;;;14.45;80.27;101775.69;5041720;28;20041;-67
2022/07/30 05:06:55;;;;;;;16.45;10.07;;;;;;;14.48;80.24;101780.97;5041763;28;20044;-68
2022/07/30 05:09:21;;;;;;;17.02;10.30;;;;;;;14.53;79.70;101777.91;5046974;28;20024;-67
2022/07/30 05:11:51;;;;;;;16.45;10.27;;;;;;;14.56;79.77;101774.06;5034851;28;20451;-69
2022/07/30 05:14:16;;;;;;;15.10;11.18;;;;;;;14.60;80.82;101779.22;5034827;28;20036;-67
2022/07/30 05:16:42;;;;;;;19.55;12.18;;;;;;;14.61;81.51;101777.34;5045962;28;20029;-68
2022/07/30 05:19:08;;;;;;;16.77;11.10;;;;;;;14.64;79.87;101778.00;5035018;28;20039;-66
2022/07/30 05:21:35;;;;;;;18.80;10.95;;;;;;;14.67;79.44;101775.00;5030779;28;20029;-67
2022/07/30 05:24:00;;;;;;;16.67;11.52;;;;;;;14.66;80.21;101773.25;5034717;28;20047;-67
2022/07/30 05:26:33;;;;;;;17.80;11.32;;;;;;;14.73;80.48;101782.75;5043289;28;20075;-67
2022/07/30 05:28:58;;;;;;;18.20;11.25;;;;;;;14.75;80.63;101780.78;5045916;28;20484;-69
2022/07/30 05:31:31;;;;;;;;;;;;;;;14.83;78.22;101777.47;5029880;28;20025;-70
2022/07/30 05:33:59;;;;;;;21.27;12.68;;;;;;;14.85;81.85;101786.44;5052978;28;20061;-70
2022/07/30 05:36:30;;;;;;;19.17;11.98;;;;;;;14.91;80.61;101777.75;5026391;28;20512;-67
2022/07/30 05:38:56;;;;;;;21.05;12.35;;;;;;;14.97;81.11;101790.13;5037973;28;20100;-69
2022/07/30 05:41:33;;;;;;;19.50;12.13;;;;;;;14.98;82.46;101778.19;5039903;28;20033;-67
2022/07/30 05:44:02;;;;;;;21.15;12.93;;;;;;;15.00;82.45;101778.94;5022576;28;20509;-67
2022/07/30 05:46:29;;;;;;;16.63;12.55;;;;;;;15.03;81.93;101785.06;5041185;28;20025;-68
2022/07/30 05:48:55;;;;;;;20.42;12.52;;;;;;;15.08;81.26;101786.56;5057072;28;20226;-68
2022/07/30 05:51:21;;;;;;;18.60;11.38;;;;;;;15.12;82.15;101786.22;5048745;28;20136;-68
2022/07/30 05:53:47;;;;;;;17.17;11.00;;;;;;;15.17;81.18;101788.59;5046373;28;20033;-67
2022/07/30 05:56:36;;;;;;;16.02;11.38;;;;;;;15.23;82.93;101799.97;5034805;28;20528;-67
2022/07/30 05:59:09;;;;;;;19.23;11.63;;;;;;;15.27;82.64;101795.13;5036516;28;20400;-69
2022/07/30 06:01:53;;;;;;;16.42;11.63;;;;;;;15.33;82.96;101797.38;5038514;28;20103;-67
2022/07/30 06:04:25;;;;;;;16.40;12.77;;;;;;;15.34;83.53;101792.78;5041587;28;20465;-68
2022/07/30 06:06:56;;;;;;;22.25;13.40;;;;;;;15.39;84.08;101798.78;5028727;28;20033;-67
2022/07/30 06:09:23;;;;;;;17.85;11.13;;;;;;;15.41;82.95;101797.66;5015224;28;20506;-67
2022/07/30 06:11:48;;;;;;;21.98;13.40;;;;;;;15.47;84.63;101801.81;5010554;28;20424;-68
2022/07/30 06:14:14;;;;;;;20.08;12.13;;;;;;;15.51;84.14;101806.06;5045543;28;20055;-68
2022/07/30 06:16:39;;;;;;;18.92;12.25;;;;;;;15.54;84.15;101803.97;5044800;28;20024;-68
2022/07/30 06:19:05;;;;;;;17.83;12.02;;;;;;;15.61;84.06;101801.59;5032670;28;20041;-68
2022/07/30 06:21:57;;;;;;;19.47;10.97;;;;;;;15.66;83.20;101804.88;5040564;28;20082;-67
2022/07/30 06:24:23;;;;;;;20.05;10.35;;;;;;;15.72;81.92;101809.91;5062197;28;20041;-68
2022/07/30 06:26:57;;;;;;;16.23;10.30;;;;;;;15.78;82.09;101816.78;5026879;28;20061;-68
2022/07/30 06:29:23;;;;;;;16.52;9.80;;;;;;;15.85;81.66;101812.53;5027603;28;20353;-70
2022/07/30 06:31:49;;;;;;;19.27;11.35;;;;;;;15.94;83.81;101808.19;5025471;28;20044;-68
2022/07/30 06:34:14;;;;;;;16.33;9.25;;;;;;;16.01;81.65;101804.84;5037222;28;20029;-68
2022/07/30 06:36:41;;;;;;;14.68;9.50;;;;;;;16.06;81.76;101815.44;5040565;28;20549;-69
2022/07/30 06:39:16;;;;;;;13.70;9.27;;;;;;;16.11;82.31;101818.69;5041942;28;20056;-67
2022/07/30 06:42:02;;;;;;;16.58;9.85;;;;;;;16.20;83.50;101817.97;5045097;28;20488;-67
2022/07/30 06:44:47;;;;;;;10.77;8.43;;;;;;;16.25;81.71;101820.34;5031384;28;20044;-70
2022/07/30 06:47:27;;;;;;;15.00;9.13;;;;;;;16.31;82.91;101820.69;5017242;28;20061;-67
2022/07/30 06:49:55;;;;;;;12.77;8.27;;;;;;;16.36;82.32;101813.97;5017429;28;20095;-67
2022/07/30 06:52:21;;;;;;;16.02;7.53;;;;;;;16.42;82.75;101819.84;5041979;28;20370;-66
2022/07/30 06:54:49;;;;;;;12.85;6.40;;;;;;;16.48;82.51;101816.59;5031452;28;20106;-67
2022/07/30 06:57:33;;;;;;;14.65;6.43;;;;;;;16.58;81.09;101820.31;5028149;28;20103;-71
2022/07/30 06:59:59;;;;;;;19.33;6.28;;;;;;;16.66;80.93;101816.09;5040231;28;20132;-68
2022/07/30 07:02:30;;;;;;;10.88;4.90;;;;;;;16.75;80.03;101820.84;5032327;28;20499;-67
2022/07/30 07:05:09;;;;;;;11.23;5.00;;;;;;;16.93;78.59;101821.19;5041741;28;20036;-69
2022/07/30 07:07:35;;;;;;;12.93;5.35;;;;;;;17.02;79.29;101829.53;5035436;28;20041;-67
2022/07/30 07:10:02;;;;;;;13.20;5.38;;;;;;;17.14;78.29;101830.38;5021860;28;20045;-70
2022/07/30 07:12:33;;;;;;;16.02;5.07;;;;;;;17.26;77.80;101825.72;5042006;28;20029;-70
2022/07/30 07:14:59;;;;;;;9.02;4.63;;;;;;;17.39;77.40;101831.03;5035241;28;20103;-70
2022/07/30 07:17:24;;;;;;;8.88;4.55;;;;;;;17.46;74.97;101832.25;5037972;28;20778;-68
2022/07/30 07:19:56;;;;;;;9.02;4.03;;;;;;;17.70;75.91;101830.13;5034381;28;20035;-68
2022/07/30 07:22:22;;;;;;;8.48;4.70;;;;;;;18.11;73.74;101831.19;5033201;28;20048;-68
2022/07/30 07:24:48;;;;;;;6.90;3.83;;;;;;;18.25;73.65;101827.19;5036635;28;20490;-67
2022/07/30 07:27:16;;;;;;;10.52;4.53;;;;;;;18.19;71.91;101819.50;5040861;28;20487;-68
2022/07/30 07:29:44;;;;;;;12.30;5.05;;;;;;;18.16;72.65;101828.88;5037773;28;20036;-67
2022/07/30 07:32:10;;;;;;;9.70;4.60;;;;;;;18.13;72.57;101831.03;5019477;28;20039;-67
2022/07/30 07:34:37;;;;;;;9.30;4.70;;;;;;;18.09;71.50;101825.81;5035485;28;20504;-68
2022/07/30 07:37:03;;;;;;;10.38;4.35;;;;;;;18.08;71.59;101835.06;5035908;28;20037;-67
2022/07/30 07:39:28;;;;;;;5.35;4.20;;;;;;;18.14;71.72;101832.75;5026603;28;20049;-68
2022/07/30 07:41:54;;;;;;;6.97;4.00;;;;;;;18.23;71.95;101827.34;5041271;28;20025;-66
2022/07/30 07:44:23;;;;;;;5.40;4.25;;;;;;;18.27;72.55;101827.91;5039729;28;20039;-67
2022/07/30 07:46:48;;;;;;;5.95;3.53;;;;;;;18.34;72.20;101834.63;5037496;28;20793;-67
2022/07/30 07:49:15;;;;;;;7.93;3.78;;;;;;;18.34;70.26;101835.50;5038427;28;20029;-68
2022/07/30 07:51:46;;;;;;;5.00;3.42;;;;;;;18.41;70.03;101837.69;5036658;28;20037;-67
2022/07/30 07:54:13;;;;;;;8.55;3.67;;;;;;;18.47;70.33;101835.28;5041299;28;20028;-69
2022/07/30 07:56:39;;;;;;;8.27;3.67;;;;;;;18.56;70.86;101837.22;5042047;28;20159;-67
2022/07/30 07:59:05;;;;;;;4.78;3.17;;;;;;;18.75;69.73;101835.56;5039057;28;20048;-69
2022/07/30 08:01:31;;;;;;;9.05;3.03;;;;;;;18.83;70.31;101831.06;5036358;28;20033;-69
2022/07/30 08:04:16;;;;;;;6.95;2.67;;;;;;;18.86;67.62;101833.56;5039896;28;20404;-68
2022/07/30 08:07:00;;;;;;;7.88;3.13;;;;;;;18.97;66.26;101828.94;5043309;28;20534;-67
2022/07/30 08:09:44;;;;;;;3.47;3.00;;;;;;;19.18;67.28;101826.94;5036936;28;20091;-67
2022/07/30 08:12:26;;;;;;;7.90;2.80;;;;;;;19.91;66.99;101832.03;5030607;28;20022;-67
2022/07/30 08:15:10;;;;;;;7.32;2.67;;;;;;;20.43;63.67;101829.75;5037130;28;20091;-66
2022/07/30 08:17:54;;;;;;;4.53;2.92;;;;;;;21.19;61.53;101829.50;5041248;28;20052;-68
2022/07/30 08:20:34;;;;;;;13.35;3.33;;;;;;;21.43;60.81;101824.25;5041521;28;20020;-68
2022/07/30 08:23:00;;;;;;;7.35;2.70;;;;;;;21.95;60.54;101824.34;5046464;28;20032;-68
2022/07/30 08:25:26;;;;;;;6.97;1.88;;;;;;;22.49;58.49;101818.66;5045305;28;20130;-67
2022/07/30 08:27:52;;;;;;;7.47;2.20;;;;;;;22.66;53.16;101826.91;5048213;28;20047;-67
2022/07/30 08:30:17;;;;;;;2.92;1.88;;;;;;;22.55;53.50;101829.09;5043271;28;20021;-68
2022/07/30 08:32:43;;;;;;;5.60;2.00;;;;;;;22.98;53.27;101824.44;5019224;28;20029;-66
2022/07/30 08:35:08;;;;;;;9.38;2.38;;;;;;;23.23;54.70;101825.41;5026642;28;20037;-68
2022/07/30 08:37:35;;;;;;;6.93;2.28;;;;;;;23.84;54.48;101819.41;5027540;28;20520;-67
2022/07/30 08:40:03;;;;;;;6.32;2.30;;;;;;;24.10;50.76;101835.00;5017069;28;20059;-68
2022/07/30 08:42:32;;;;;;;5.13;2.20;;;;;;;24.58;51.53;101824.88;5064933;28;20421;-70
2022/07/30 08:44:59;;;;;;;8.30;2.30;;;;;;;24.82;47.98;101821.97;5045081;28;20068;-69
2022/07/30 08:47:29;;;;;;;5.35;2.08;;;;;;;25.01;49.00;101817.00;5028491;28;20034;-67
2022/07/30 08:50:11;;;;;;;3.88;2.30;;;;;;;25.07;48.94;101816.28;5041263;28;20148;-66
2022/07/30 08:52:54;;;;;;;6.30;2.25;;;;;;;25.49;48.34;101820.56;5054253;28;20564;-66
2022/07/30 08:55:24;;;;;;;6.18;2.15;;;;;;;25.75;48.33;101829.44;5027571;28;20029;-67
2022/07/30 08:57:50;;;;;;;8.13;2.00;;;;;;;26.11;47.39;101825.97;5027875;28;20887;-66
2022/07/30 09:00:17;;;;;;;2.30;1.77;;;;;;;26.24;46.60;101823.41;5027080;28;20450;-67
2022/07/30 09:02:43;;;;;;;5.18;1.90;;;;;;;26.30;44.72;101816.19;5028939;28;20033;-67
2022/07/30 09:05:10;;;;;;;6.75;2.20;;;;;;;26.32;44.00;101814.09;5025888;28;20048;-67
2022/07/30 09:07:36;;;;;;;7.10;2.20;;;;;;;26.41;43.51;101808.22;5028862;28;20033;-66
2022/07/30 09:10:07;;;;;;;4.68;2.03;;;;;;;25.83;42.89;101817.34;5043984;28;20045;-66
2022/07/30 09:12:34;;;;;;;4.22;2.03;;;;;;;25.70;40.98;101823.53;5024651;28;20116;-68
2022/07/30 09:15:03;;;;;;;2.83;1.73;;;;;;;25.90;45.48;101822.00;5032999;28;20031;-68
2022/07/30 09:17:44;;;;;;;5.45;2.03;;;;;;;26.39;45.42;101823.41;5046023;28;20485;-69
2022/07/30 09:20:09;;;;;;;3.35;1.83;;;;;;;26.66;42.84;101836.72;5041409;28;20475;-66
2022/07/30 09:22:45;;;;;;;4.60;1.95;;;;;;;27.10;43.59;101827.47;5043543;28;20033;-67
2022/07/30 09:25:42;;;;;;;8.40;1.55;;;;;;;27.30;42.73;101826.84;4996105;28;20216;-67
2022/07/30 09:28:46;;;;;;;6.32;1.48;;;;;;;27.38;40.41;101843.50;4981898;28;20049;-65
2022/07/30 09:31:16;;;;;;;4.53;1.65;;;;;;;27.21;40.11;101849.31;4984543;28;20505;-68
2022/07/30 09:34:01;;;;;;;7.47;1.65;;;;;;;27.26;40.28;101842.28;5003714;28;20397;-64
2022/07/30 09:36:45;;;;;;;2.85;1.70;;;;;;;27.39;40.59;101843.28;5030962;28;20106;-65
2022/07/30 09:39:38;;;;;;;6.97;2.08;;;;;;;26.77;40.05;101842.91;5048406;28;20665;-68
2022/07/30 09:42:25;;;;;;;4.20;1.85;;;;;;;26.60;43.00;101837.50;5043873;28;20421;-63
2022/07/30 09:45:12;;;;;;;1.95;1.33;;;;;;;26.73;42.56;101831.25;5041602;28;20036;-64
2022/07/30 09:47:47;;;;;;;4.00;1.83;;;;;;;27.05;42.44;101831.91;5034162;28;20370;-63
2022/07/30 09:50:14;;;;;;;3.95;1.83;;;;;;;27.52;41.75;101828.59;5031140;28;21328;-64
2022/07/30 09:52:45;;;;;;;6.53;2.10;;;;;;;27.54;42.22;101834.00;5039865;28;20228;-64
2022/07/30 09:55:13;;;;;;;8.70;1.80;;;;;;;27.74;41.02;101828.63;5038789;28;20029;-64
2022/07/30 09:57:55;;;;;;;5.57;2.10;;;;;;;27.63;41.52;101830.00;5042790;28;20032;-64
2022/07/30 10:00:23;;;;;;;4.53;1.63;;;;;;;27.34;42.13;101825.41;5041616;28;20029;-65
2022/07/30 10:03:12;;;;;;;5.80;2.00;;;;;;;27.77;39.45;101812.31;5037828;28;20033;-67
2022/07/30 10:05:59;;;;;;;4.25;1.70;;;;;;;27.81;39.22;101805.25;5005436;28;20052;-64
2022/07/30 10:08:44;;;;;;;3.65;1.30;;;;;;;28.22;41.39;101812.91;5043719;28;20030;-64
2022/07/30 10:11:18;;;;;;;3.28;1.63;;;;;;;28.24;39.60;101813.56;5038349;28;20532;-66
2022/07/30 10:13:47;;;;;;;4.40;1.70;;;;;;;28.34;39.71;101816.88;5036300;28;20030;-64
2022/07/30 10:16:13;;;;;;;4.78;1.65;;;;;;;28.54;39.15;101817.03;5035878;28;20116;-64
2022/07/30 10:18:41;;;;;;;3.97;1.60;;;;;;;28.81;38.34;101809.63;5032636;28;20029;-67
2022/07/30 10:21:43;;;;;;;5.45;1.77;;;;;;;28.98;38.05;101812.97;5031888;28;20048;-64
2022/07/30 10:24:30;;;;;;;6.75;1.65;;;;;;;28.97;36.98;101800.91;5037892;28;20112;-65
2022/07/30 10:27:15;;;;;;;3.47;1.50;;;;;;;29.30;35.87;101811.34;5035926;28;20052;-65
2022/07/30 10:29:48;;;;;;;3.42;1.50;;;;;;;29.69;37.25;101804.09;5035324;28;20047;-64
2022/07/30 10:32:13;;;;;;;4.45;1.50;;;;;;;29.65;36.01;101803.66;5039640;28;20095;-67
2022/07/30 10:34:39;;;;;;;3.05;1.30;;;;;;;29.79;36.13;101801.75;5035198;28;20464;-66
2022/07/30 10:37:05;;;;;;;5.10;1.70;;;;;;;29.87;36.43;101807.16;5033588;28;20490;-64
2022/07/30 10:39:44;;;;;;;3.35;1.52;;;;;;;29.94;36.55;101810.84;5026801;28;20080;-65
2022/07/30 10:42:26;;;;;;;5.25;1.52;;;;;;;29.69;37.56;101807.78;5041556;28;20045;-65
2022/07/30 10:45:02;;;;;;;4.13;1.50;;;;;;;29.97;35.80;101806.72;5036969;28;20095;-64
2022/07/30 10:47:28;;;;;;;1.95;1.50;;;;;;;29.77;34.69;101808.66;5022242;28;20152;-64
2022/07/30 10:50:06;;;;;;;2.72;1.50;;;;;;;29.80;37.14;101809.09;5030001;28;20037;-64
2022/07/30 10:52:45;;;;;;;4.05;1.58;;;;;;;30.08;37.18;101816.41;5032683;28;20495;-64
2022/07/30 10:55:14;;;;;;;2.60;1.50;;;;;;;30.00;34.48;101814.72;5040633;28;20043;-64
2022/07/30 10:58:02;;;;;;;7.15;1.52;;;;;;;30.25;37.04;101823.34;5041660;28;20123;-65
2022/07/30 11:00:30;;;;;;;7.25;1.95;;;;;;;30.41;33.74;101813.63;5037220;28;20098;-64
2022/07/30 11:03:22;;;;;;;3.58;1.52;;;;;;;30.78;35.60;101802.72;5041644;28;20021;-64
2022/07/30 11:05:51;;;;;;;4.53;1.55;;;;;;;30.26;31.21;101807.38;5042902;28;20114;-65
2022/07/30 11:08:34;;;;;;;3.17;1.70;;;;;;;29.61;35.11;101799.59;5036376;28;20049;-64
2022/07/30 11:11:00;;;;;;;8.73;1.90;;;;;;;29.09;33.39;101798.34;5042528;28;20037;-65
2022/07/30 11:13:56;;;;;;;3.08;1.70;;;;;;;29.26;36.67;101803.56;5036757;28;20369;-66
2022/07/30 11:16:33;;;;;;;2.83;1.48;;;;;;;29.43;36.73;101802.97;5037499;28;20040;-65
2022/07/30 11:19:02;;;;;;;5.72;1.80;;;;;;;29.79;36.91;101812.97;5035019;28;20049;-66
2022/07/30 11:21:28;;;;;;;3.53;1.50;;;;;;;29.86;34.69;101802.63;5038757;28;20029;-67
2022/07/30 11:23:54;;;;;;;4.05;1.80;;;;;;;29.86;33.52;101796.16;5037246;28;20063;-67
2022/07/30 11:26:37;;;;;;;4.13;1.55;;;;;;;29.57;36.27;101800.22;5041542;28;20127;-66
2022/07/30 11:29:04;;;;;;;3.92;1.63;;;;;;;29.89;35.29;101792.88;5036945;28;20512;-68
2022/07/30 11:31:32;;;;;;;3.35;1.77;;;;;;;29.48;34.50;101796.72;5035586;28;20028;-68
2022/07/30 11:34:19;;;;;;;7.13;2.08;;;;;;;29.74;36.20;101791.16;5027473;28;20032;-68
2022/07/30 11:37:14;;;;;;;2.22;1.65;;;;;;;29.18;35.96;101799.88;5034786;28;20041;-66
2022/07/30 11:39:52;;;;;;;3.50;1.70;;;;;;;29.01;37.05;101784.53;5040586;28;20052;-65
2022/07/30 11:42:29;;;;;;;4.13;1.70;;;;;;;29.54;36.64;101783.78;5044955;28;20033;-68